KHSA

Stennis International Airport

Bay St Louis, Mississippi, USA
METAR KHSA 171350Z 00000KT 7SM CLR 07/07 A3029
Observed Flight Rules
Dec-17 @ 13:50 UTC (39 minutes ago) Visual Flight Rules
Visibility Clouds
7 miles
  • Clear skies
Temperatures Readings
Current 7°C / 45°F
Dewpoint 7°C / 45°F
Humidity 100%
Altimeter 30.29" Hg
Pressure 1026 hPa
Elevation 7
METAR KHSA 171350Z 00000KT 7SM CLR 07/07 A3029
Observed Flight Rules
Dec-17 @ 13:50 UTC
(39 minutes ago)
VFR
Clouds
  • Clear skies
Temperature Dewpoint
7°C / 45°F 7°C / 45°F
Humidity Altimeter Pressure
100% 30.29" Hg 1026 hPa